Time;durP1;ratioP1;P1;durP2;ratioP2;P2;SDS_P1;SDS_P2;PMS_P1;PMS_P2;Temp;Humidity;BMP_temperature;BMP_pressure;BME280_temperature;BME280_humidity;BME280_pressure;Samples;Min_cycle;Max_cycle;Signal;HPM_P1;HPM_P2
2021/06/07 00:00:22;;;;;;;11.82;10.48;;;;;;;19.27;74.46;99006.75;5033752;28;20025;-83
2021/06/07 00:02:48;;;;;;;12.32;9.55;;;;;;;19.27;74.63;99009.47;5023941;28;20133;-83
2021/06/07 00:05:16;;;;;;;11.73;9.70;;;;;;;19.29;74.20;99014.56;5015528;28;20025;-82
2021/06/07 00:07:41;;;;;;;10.38;9.40;;;;;;;19.30;74.17;99010.72;5021436;28;20030;-83
2021/06/07 00:10:10;;;;;;;11.35;9.13;;;;;;;19.34;74.10;99009.69;5030889;28;20037;-81
2021/06/07 00:12:36;;;;;;;9.50;8.60;;;;;;;19.32;73.71;99000.31;5032389;28;20037;-81
2021/06/07 00:15:07;;;;;;;8.52;7.72;;;;;;;19.35;73.33;98996.94;5013084;28;20044;-84
2021/06/07 00:17:32;;;;;;;11.27;8.70;;;;;;;19.35;73.29;98995.03;5022841;28;20037;-86
2021/06/07 00:19:57;;;;;;;10.98;8.18;;;;;;;19.38;73.21;99000.91;5013124;28;20079;-83
2021/06/07 00:22:23;;;;;;;9.25;8.30;;;;;;;19.35;73.42;98995.03;5008574;28;20411;-83
2021/06/07 00:24:48;;;;;;;9.65;8.75;;;;;;;19.32;73.11;98984.88;5012067;28;20063;-86
2021/06/07 00:27:14;;;;;;;8.95;8.05;;;;;;;19.37;73.40;98997.38;5019643;28;20111;-85
2021/06/07 00:29:39;;;;;;;9.45;8.55;;;;;;;19.37;73.20;98986.53;5024313;28;20026;-82
2021/06/07 00:32:05;;;;;;;10.70;8.02;;;;;;;19.34;73.62;98985.28;5023233;28;20482;-80
2021/06/07 00:34:31;;;;;;;10.82;9.48;;;;;;;19.31;73.63;98987.88;5030951;28;20017;-85
2021/06/07 00:36:56;;;;;;;11.68;8.13;;;;;;;19.31;73.41;98985.19;5014817;28;20037;-84
2021/06/07 00:39:22;;;;;;;9.02;7.80;;;;;;;19.30;73.47;98984.41;5027120;28;20403;-81
2021/06/07 00:41:48;;;;;;;9.55;8.60;;;;;;;19.33;73.27;98982.94;5015865;28;20030;-83
2021/06/07 00:44:21;;;;;;;10.18;8.88;;;;;;;19.34;73.38;98988.00;5024236;28;20056;-82
2021/06/07 00:46:46;;;;;;;11.60;9.27;;;;;;;19.35;73.19;98986.88;4994403;28;20079;-86
2021/06/07 00:49:12;;;;;;;8.68;7.88;;;;;;;19.39;73.25;98981.59;5023306;28;20029;-82
2021/06/07 00:51:39;;;;;;;10.18;8.30;;;;;;;19.44;73.14;98986.00;5019188;28;20068;-82
2021/06/07 00:54:06;;;;;;;8.65;7.75;;;;;;;19.48;72.65;98984.19;5016343;28;20052;-83
2021/06/07 00:56:33;;;;;;;8.18;7.43;;;;;;;19.52;72.62;98971.56;4994042;28;20455;-83
2021/06/07 00:58:58;;;;;;;9.27;7.80;;;;;;;19.51;72.62;98978.88;5026065;28;20589;-87
2021/06/07 01:01:25;;;;;;;8.88;7.75;;;;;;;19.54;72.36;98969.28;5017848;28;20071;-85
2021/06/07 01:03:53;;;;;;;8.70;7.82;;;;;;;19.55;72.33;98976.28;5030485;28;20033;-84
2021/06/07 01:06:19;;;;;;;8.23;7.25;;;;;;;19.57;72.18;98968.63;5024512;28;20029;-83
2021/06/07 01:08:45;;;;;;;8.35;7.55;;;;;;;19.59;71.91;98973.69;5014285;28;20030;-83
2021/06/07 01:11:12;;;;;;;8.77;7.93;;;;;;;19.61;71.44;98979.59;5022541;28;20484;-82
2021/06/07 01:13:39;;;;;;;14.20;8.73;;;;;;;19.56;71.90;98968.97;5028988;28;20033;-81
2021/06/07 01:16:05;;;;;;;8.55;7.65;;;;;;;19.62;71.61;98965.66;5019794;28;20034;-82
2021/06/07 01:18:32;;;;;;;11.50;8.35;;;;;;;19.61;71.94;98966.03;5021984;28;20072;-81
2021/06/07 01:21:09;;;;;;;9.65;8.23;;;;;;;19.62;71.89;98973.03;5021343;28;20033;-80
2021/06/07 01:23:36;;;;;;;9.30;8.20;;;;;;;19.59;71.88;98965.56;5030026;28;20033;-80
2021/06/07 01:26:04;;;;;;;8.15;7.45;;;;;;;19.63;71.73;98971.91;5028995;28;20025;-80
2021/06/07 01:28:31;;;;;;;9.65;8.65;;;;;;;19.62;71.54;98962.19;5012704;28;20567;-81
2021/06/07 01:30:58;;;;;;;8.80;7.90;;;;;;;19.63;71.34;98966.47;5019351;28;20060;-80
2021/06/07 01:33:26;;;;;;;8.93;7.47;;;;;;;19.65;71.22;98973.16;5029041;28;20575;-82
2021/06/07 01:35:53;;;;;;;;;;;;;;;19.71;71.26;98970.19;5014053;28;20108;-82
2021/06/07 01:38:19;;;;;;;10.25;7.82;;;;;;;19.69;70.65;98967.84;5026919;28;19913;-82
2021/06/07 01:40:48;;;;;;;7.85;7.03;;;;;;;19.66;70.13;98968.50;5012795;28;20044;-81
2021/06/07 01:43:14;;;;;;;8.20;7.25;;;;;;;19.64;69.92;98973.47;5013261;28;20056;-82
2021/06/07 01:45:42;;;;;;;7.97;7.10;;;;;;;19.63;69.24;98964.53;5031655;28;20110;-84
2021/06/07 01:48:08;;;;;;;;;;;;;;;19.64;69.21;98974.28;5018344;28;20032;-83
2021/06/07 01:50:36;;;;;;;7.63;6.95;;;;;;;19.61;68.80;98972.22;5031888;28;19916;-82
2021/06/07 01:53:02;;;;;;;8.95;7.53;;;;;;;19.59;68.55;98971.78;5030569;28;20088;-83
2021/06/07 01:55:32;;;;;;;7.22;6.07;;;;;;;19.61;68.25;98971.44;5026413;28;20111;-82
2021/06/07 01:57:58;;;;;;;6.95;6.25;;;;;;;19.61;67.88;98972.22;5016634;28;20032;-83
2021/06/07 02:00:28;;;;;;;9.05;7.13;;;;;;;19.64;67.98;98971.56;5027314;28;20029;-84
2021/06/07 02:02:54;;;;;;;7.72;6.45;;;;;;;19.67;67.89;98973.59;5024322;28;20033;-84
2021/06/07 02:05:26;;;;;;;8.20;6.68;;;;;;;19.65;67.90;98973.16;5030398;28;20060;-84
2021/06/07 02:07:54;;;;;;;8.77;7.20;;;;;;;19.68;67.74;98979.81;5026000;28;20446;-83
2021/06/07 02:10:23;;;;;;;8.18;6.93;;;;;;;19.69;67.72;98986.81;5015701;28;20514;-82
2021/06/07 02:12:48;;;;;;;;;;;;;;;19.68;67.46;98983.31;5020802;28;20041;-83
2021/06/07 02:15:15;;;;;;;9.02;6.53;;;;;;;19.70;67.42;98991.13;5026720;28;20310;-85
2021/06/07 02:17:41;;;;;;;8.00;6.50;;;;;;;19.72;67.49;98986.13;5031576;28;20033;-84
2021/06/07 02:20:11;;;;;;;7.47;6.78;;;;;;;19.75;67.47;98993.63;5027970;28;20164;-86
2021/06/07 02:22:38;;;;;;;7.53;6.55;;;;;;;19.74;67.25;98988.50;5032245;28;20033;-85
2021/06/07 02:25:05;;;;;;;9.23;6.18;;;;;;;19.77;67.63;98987.84;5020442;28;20136;-81
2021/06/07 02:27:32;;;;;;;8.20;7.18;;;;;;;19.79;67.79;98988.31;5020145;28;20055;-81
2021/06/07 02:29:58;;;;;;;8.00;6.75;;;;;;;19.78;67.84;98982.06;5022631;28;20068;-81
2021/06/07 02:32:24;;;;;;;7.28;6.57;;;;;;;19.81;67.87;98991.44;5016314;28;20101;-79
2021/06/07 02:34:49;;;;;;;7.47;6.78;;;;;;;19.80;67.89;98985.25;5017999;28;20607;-81
2021/06/07 02:37:15;;;;;;;7.80;7.07;;;;;;;19.79;68.36;98991.00;5019495;28;20491;-80
2021/06/07 02:39:40;;;;;;;9.30;7.38;;;;;;;19.80;68.83;98995.31;5016254;28;20090;-80
2021/06/07 02:42:06;;;;;;;11.93;8.05;;;;;;;19.75;69.12;98985.47;5018886;28;20029;-80
2021/06/07 02:44:32;;;;;;;9.98;7.95;;;;;;;19.75;69.19;98988.19;5029157;28;20034;-80
2021/06/07 02:46:57;;;;;;;9.70;8.68;;;;;;;19.70;70.01;98983.00;5022711;28;20036;-80
2021/06/07 02:49:23;;;;;;;10.23;8.52;;;;;;;19.70;69.30;98993.03;5019340;28;20036;-82
2021/06/07 02:51:48;;;;;;;11.25;10.02;;;;;;;19.69;70.19;98997.69;5015808;28;20068;-84
2021/06/07 02:54:14;;;;;;;10.07;8.68;;;;;;;19.69;70.07;98994.97;5015445;28;20040;-83
2021/06/07 02:56:39;;;;;;;10.93;9.20;;;;;;;19.73;70.35;98989.66;5014819;28;20108;-81
2021/06/07 02:59:05;;;;;;;10.70;8.82;;;;;;;19.79;70.77;98991.78;5026859;28;20120;-82
2021/06/07 03:01:30;;;;;;;9.43;8.20;;;;;;;19.87;70.61;98992.84;5015944;28;20025;-83
2021/06/07 03:03:56;;;;;;;8.98;8.18;;;;;;;19.91;70.17;98991.03;5024344;28;20033;-84
2021/06/07 03:06:21;;;;;;;9.55;8.63;;;;;;;19.91;70.18;98990.22;5016960;28;20041;-81
2021/06/07 03:08:47;;;;;;;10.23;8.85;;;;;;;19.94;70.00;98992.28;5013434;28;20120;-86
2021/06/07 03:11:12;;;;;;;9.57;8.68;;;;;;;19.93;70.43;98999.63;5048302;28;20044;-86
2021/06/07 03:13:42;;;;;;;9.85;8.38;;;;;;;19.91;70.23;99011.94;5014927;28;20131;-89
2021/06/07 03:16:09;;;;;;;14.15;9.27;;;;;;;19.89;70.27;99006.88;5015382;28;20458;-86
2021/06/07 03:18:34;;;;;;;10.38;9.35;;;;;;;19.91;70.26;99007.31;5015366;28;20040;-86
2021/06/07 03:21:00;;;;;;;10.05;9.00;;;;;;;19.91;70.38;99012.75;5024466;28;20553;-82
2021/06/07 03:23:31;;;;;;;10.45;9.25;;;;;;;19.92;70.40;98999.97;5026171;28;20510;-82
2021/06/07 03:25:57;;;;;;;10.23;9.13;;;;;;;19.92;70.60;98995.34;5030457;28;20503;-83
2021/06/07 03:28:23;;;;;;;9.52;8.25;;;;;;;19.93;70.04;98996.13;5014645;28;20042;-84
2021/06/07 03:30:50;;;;;;;12.63;10.13;;;;;;;19.94;70.21;98995.00;5015799;28;20492;-85
2021/06/07 03:33:16;;;;;;;11.02;9.70;;;;;;;19.95;70.26;98994.66;5015227;28;20060;-80
2021/06/07 03:35:44;;;;;;;10.55;9.57;;;;;;;19.98;70.05;99004.84;5014925;28;20030;-82
2021/06/07 03:38:10;;;;;;;10.70;9.25;;;;;;;19.97;69.97;99016.81;5020959;28;20034;-82
2021/06/07 03:40:40;;;;;;;10.05;9.05;;;;;;;19.99;69.89;99005.63;5026363;28;20064;-82
2021/06/07 03:43:06;;;;;;;10.10;9.10;;;;;;;19.99;69.96;99009.13;5031012;28;20075;-82
2021/06/07 03:45:32;;;;;;;11.48;9.05;;;;;;;19.99;70.39;99009.13;5016329;28;20076;-80
2021/06/07 03:47:57;;;;;;;11.55;9.90;;;;;;;19.93;70.47;99015.13;5008286;28;20041;-79
2021/06/07 03:50:25;;;;;;;11.80;9.70;;;;;;;19.91;70.51;99017.38;5015757;28;20029;-79
2021/06/07 03:52:51;;;;;;;10.43;9.38;;;;;;;19.93;70.72;99009.69;5014534;28;20033;-78
2021/06/07 03:55:19;;;;;;;9.88;8.98;;;;;;;19.95;70.49;99012.88;5031181;28;20103;-80
2021/06/07 03:57:45;;;;;;;13.02;10.43;;;;;;;19.94;70.52;99017.47;5012954;28;20038;-82
2021/06/07 04:00:14;;;;;;;11.73;10.57;;;;;;;19.97;70.77;99019.53;5014213;28;20075;-81
2021/06/07 04:02:42;;;;;;;12.85;9.93;;;;;;;20.03;70.68;99006.53;5021234;28;20120;-82
2021/06/07 04:05:08;;;;;;;12.45;9.63;;;;;;;20.07;70.86;99012.84;5013387;28;20025;-80
2021/06/07 04:07:34;;;;;;;10.48;9.48;;;;;;;20.12;70.49;99007.19;5004671;28;20076;-81
2021/06/07 04:10:01;;;;;;;10.18;9.25;;;;;;;20.21;70.44;99012.50;5014573;28;20030;-82
2021/06/07 04:12:27;;;;;;;10.73;8.82;;;;;;;20.30;70.16;99012.41;5024177;28;20030;-79
2021/06/07 04:14:52;;;;;;;9.63;8.73;;;;;;;20.40;69.84;99009.19;5031909;28;20021;-81
2021/06/07 04:17:19;;;;;;;11.45;10.23;;;;;;;20.46;69.30;99018.69;5021270;28;20041;-79
2021/06/07 04:19:45;;;;;;;10.15;9.15;;;;;;;20.50;69.09;99016.06;5031233;28;20492;-80
2021/06/07 04:22:10;;;;;;;11.40;9.95;;;;;;;20.56;69.22;99013.91;5014200;28;20031;-83
2021/06/07 04:24:35;;;;;;;11.82;10.60;;;;;;;20.57;68.88;99016.28;5009592;28;20026;-83
2021/06/07 04:27:01;;;;;;;11.10;10.10;;;;;;;20.58;68.89;99020.59;5002818;28;20061;-77
2021/06/07 04:29:26;;;;;;;12.05;10.35;;;;;;;20.58;68.90;99025.22;5003106;28;20033;-80
2021/06/07 04:31:52;;;;;;;11.25;10.05;;;;;;;20.60;69.13;99031.09;5010865;28;20096;-78
2021/06/07 04:34:17;;;;;;;13.45;9.35;;;;;;;20.59;68.78;99029.53;5015196;28;20083;-77
2021/06/07 04:36:42;;;;;;;10.95;9.77;;;;;;;20.57;68.87;99020.94;5031851;28;20132;-78
2021/06/07 04:39:10;;;;;;;12.88;9.57;;;;;;;20.59;68.82;99024.09;5031146;28;20041;-78
2021/06/07 04:41:36;;;;;;;10.38;9.40;;;;;;;20.61;68.94;99024.53;5030261;28;20018;-78
2021/06/07 04:44:01;;;;;;;10.77;9.35;;;;;;;20.61;68.80;99038.91;5030265;28;20091;-78
2021/06/07 04:46:28;;;;;;;11.18;9.90;;;;;;;20.62;68.80;99035.06;5031047;28;20080;-78
2021/06/07 04:48:53;;;;;;;10.07;8.98;;;;;;;20.61;68.67;99033.47;5031243;28;20104;-78
2021/06/07 04:51:19;;;;;;;9.60;8.57;;;;;;;20.63;68.61;99036.66;5031462;28;20069;-78
2021/06/07 04:53:45;;;;;;;12.65;9.13;;;;;;;20.64;68.69;99043.66;5030062;28;20037;-78
2021/06/07 04:56:10;;;;;;;10.73;9.60;;;;;;;20.63;68.34;99042.06;5029955;28;20472;-77
2021/06/07 04:58:35;;;;;;;10.75;9.60;;;;;;;20.66;68.66;99050.69;5030077;28;20030;-76
2021/06/07 05:01:05;;;;;;;12.32;7.90;;;;;;;20.67;68.56;99047.63;5030161;28;20079;-77
2021/06/07 05:03:31;;;;;;;13.90;9.73;;;;;;;20.73;68.80;99053.66;5031051;28;20030;-77
2021/06/07 05:05:59;;;;;;;10.63;9.63;;;;;;;20.73;68.67;99059.06;5029912;28;20032;-77
2021/06/07 05:08:25;;;;;;;11.55;9.85;;;;;;;20.77;68.53;99054.53;5031000;28;20357;-77
2021/06/07 05:10:51;;;;;;;11.88;8.73;;;;;;;20.79;68.49;99050.31;5031031;28;20078;-77
2021/06/07 05:13:17;;;;;;;9.65;8.85;;;;;;;20.82;68.10;99050.78;5029571;28;20408;-77
2021/06/07 05:15:43;;;;;;;10.20;8.90;;;;;;;20.85;67.96;99053.59;5029626;28;20021;-77
2021/06/07 05:18:08;;;;;;;12.85;10.57;;;;;;;20.89;68.25;99051.78;5030749;28;20029;-77
2021/06/07 05:20:35;;;;;;;9.40;8.50;;;;;;;20.94;68.28;99058.91;5029880;28;20041;-77
2021/06/07 05:23:01;;;;;;;9.50;8.38;;;;;;;20.96;68.02;99059.34;5030907;28;20069;-77
2021/06/07 05:25:28;;;;;;;9.10;7.68;;;;;;;20.92;67.50;99058.44;5029600;28;20029;-77
2021/06/07 05:27:55;;;;;;;10.30;9.38;;;;;;;20.91;67.72;99060.38;5029807;28;20053;-77
2021/06/07 05:30:23;;;;;;;8.77;7.70;;;;;;;20.86;67.77;99063.34;5029132;28;20504;-77
2021/06/07 05:32:49;;;;;;;;;;;;;;;20.84;68.29;99062.88;5031076;28;20508;-77
2021/06/07 05:35:16;;;;;;;8.90;7.93;;;;;;;20.84;68.57;99062.88;5029388;28;19920;-77
2021/06/07 05:37:41;;;;;;;8.93;7.35;;;;;;;20.84;68.20;99068.31;5029674;28;20458;-77
2021/06/07 05:40:08;;;;;;;8.52;7.82;;;;;;;20.86;68.29;99074.22;5030470;28;20021;-77
2021/06/07 05:42:34;;;;;;;8.25;7.43;;;;;;;20.86;68.13;99066.06;5031265;28;20057;-77
2021/06/07 05:45:00;;;;;;;9.60;8.60;;;;;;;20.87;67.56;99061.41;5031380;28;20064;-78
2021/06/07 05:47:25;;;;;;;10.10;7.60;;;;;;;20.92;67.33;99081.00;5029312;28;20431;-78
2021/06/07 05:49:50;;;;;;;10.73;8.63;;;;;;;20.93;67.52;99065.47;5031884;28;20025;-78
2021/06/07 05:52:16;;;;;;;8.18;7.45;;;;;;;20.95;67.36;99074.06;5032281;28;20018;-78
2021/06/07 05:54:42;;;;;;;10.38;9.15;;;;;;;21.00;67.10;99076.53;5035127;28;20029;-78
2021/06/07 05:57:10;;;;;;;11.30;8.65;;;;;;;21.04;67.20;99073.94;5033349;28;20081;-78
2021/06/07 05:59:36;;;;;;;10.48;8.63;;;;;;;21.05;67.43;99070.06;5032593;28;20037;-78
2021/06/07 06:02:09;;;;;;;9.00;8.10;;;;;;;21.09;67.32;99070.94;5034299;28;20022;-78
2021/06/07 06:04:35;;;;;;;8.63;7.72;;;;;;;21.11;66.88;99066.75;5033853;28;20033;-76
2021/06/07 06:07:02;;;;;;;8.68;7.97;;;;;;;21.12;66.49;99056.69;5031097;28;20029;-77
2021/06/07 06:09:28;;;;;;;7.88;7.18;;;;;;;21.19;66.33;99078.63;5030902;28;20029;-77
2021/06/07 06:11:54;;;;;;;12.65;8.95;;;;;;;21.20;66.04;99068.53;5030945;28;20032;-78
2021/06/07 06:14:19;;;;;;;10.10;8.45;;;;;;;21.25;66.24;99079.16;5029205;28;20442;-77
2021/06/07 06:16:45;;;;;;;9.23;8.32;;;;;;;21.31;66.09;99087.88;5030467;28;20029;-77
2021/06/07 06:19:11;;;;;;;7.85;7.07;;;;;;;21.35;65.92;99070.50;5030509;28;20036;-77
2021/06/07 06:21:39;;;;;;;7.82;7.10;;;;;;;21.41;65.45;99073.75;5029399;28;20546;-77
2021/06/07 06:24:06;;;;;;;7.68;6.97;;;;;;;21.49;64.89;99074.75;5030573;28;20030;-77
2021/06/07 06:26:31;;;;;;;9.27;8.27;;;;;;;21.46;64.80;99067.28;5030333;28;20028;-77
2021/06/07 06:28:57;;;;;;;8.60;7.70;;;;;;;21.52;64.95;99076.75;5030616;28;20048;-77
2021/06/07 06:31:22;;;;;;;7.60;6.85;;;;;;;21.59;64.79;99074.25;5032437;28;20053;-76
2021/06/07 06:33:48;;;;;;;8.23;7.53;;;;;;;21.63;64.46;99079.78;5016321;28;20067;-76
2021/06/07 06:36:13;;;;;;;8.50;7.78;;;;;;;21.61;64.07;99066.53;5015964;28;20041;-78
2021/06/07 06:38:39;;;;;;;9.23;7.18;;;;;;;21.67;64.11;99067.88;5032159;28;20022;-78
2021/06/07 06:41:09;;;;;;;8.98;6.93;;;;;;;21.74;63.41;99075.44;5014332;28;20106;-77
2021/06/07 06:43:40;;;;;;;8.43;7.47;;;;;;;21.75;63.07;99071.53;5033660;28;20076;-78
2021/06/07 06:46:07;;;;;;;7.72;7.03;;;;;;;21.78;63.10;99073.59;5015666;28;20057;-78
2021/06/07 06:48:34;;;;;;;8.38;7.40;;;;;;;21.84;63.07;99080.34;5015132;28;20037;-76
2021/06/07 06:51:02;;;;;;;7.72;6.60;;;;;;;21.88;62.84;99070.31;5028602;28;20108;-76
2021/06/07 06:53:27;;;;;;;;;;;;;;;21.91;62.84;99080.53;5032886;28;20116;-77
2021/06/07 06:55:53;;;;;;;7.13;6.45;;;;;;;21.95;62.81;99086.06;5015238;28;19945;-77
2021/06/07 06:58:19;;;;;;;9.65;8.40;;;;;;;21.93;62.24;99082.09;5013551;28;20033;-76
2021/06/07 07:00:45;;;;;;;8.25;7.47;;;;;;;22.00;62.52;99079.56;5033464;28;20484;-77
2021/06/07 07:03:16;;;;;;;7.68;6.93;;;;;;;21.96;63.02;99079.47;5032804;28;20511;-76
2021/06/07 07:05:43;;;;;;;12.57;8.75;;;;;;;21.91;63.74;99083.25;5033090;28;20029;-76
2021/06/07 07:08:09;;;;;;;11.48;9.02;;;;;;;21.86;64.49;99078.06;5033344;28;20091;-76
2021/06/07 07:10:36;;;;;;;8.90;7.90;;;;;;;21.74;65.41;99073.50;5035028;28;20048;-76
2021/06/07 07:13:02;;;;;;;9.68;8.68;;;;;;;21.66;65.56;99081.84;5040781;28;20437;-76
2021/06/07 07:15:28;;;;;;;10.05;7.47;;;;;;;21.67;65.99;99084.19;5033390;28;20400;-77
2021/06/07 07:17:53;;;;;;;9.30;8.38;;;;;;;21.62;66.40;99083.66;4997284;28;20030;-77
2021/06/07 07:20:19;;;;;;;9.75;8.85;;;;;;;21.66;66.28;99090.00;5031759;28;20034;-78
2021/06/07 07:22:45;;;;;;;7.93;7.22;;;;;;;;;;5020042;28;20042;-77
2021/06/07 07:25:11;;;;;;;8.45;7.60;;;;;;;21.71;66.20;99087.78;5032616;28;20447;-77
2021/06/07 07:27:37;;;;;;;8.20;7.45;;;;;;;21.74;66.26;99092.53;5032343;28;20175;-76
2021/06/07 07:30:09;;;;;;;8.38;7.53;;;;;;;21.79;65.90;99094.22;5031807;28;20112;-78
2021/06/07 07:32:36;;;;;;;8.48;7.68;;;;;;;21.74;66.94;99084.38;5032424;28;20443;-78
2021/06/07 07:35:03;;;;;;;8.80;8.00;;;;;;;21.68;66.90;99087.69;5032242;28;20112;-77
2021/06/07 07:37:28;;;;;;;8.48;7.65;;;;;;;21.63;66.85;99090.69;5030645;28;20029;-77
2021/06/07 07:39:54;;;;;;;9.15;8.25;;;;;;;21.59;66.84;99090.59;5032807;28;20116;-77
2021/06/07 07:42:19;;;;;;;8.50;7.80;;;;;;;21.62;67.56;99089.09;5014274;28;20036;-75
2021/06/07 07:44:44;;;;;;;8.40;7.70;;;;;;;21.67;67.20;99097.81;5032726;28;20025;-78
2021/06/07 07:47:11;;;;;;;13.50;10.80;;;;;;;21.59;67.63;99102.28;5014950;28;20109;-78
2021/06/07 07:49:36;;;;;;;15.85;12.32;;;;;;;21.58;66.98;99108.03;5031495;28;20627;-78
2021/06/07 07:52:04;;;;;;;9.10;7.93;;;;;;;21.53;67.10;99114.53;5014606;28;20028;-76
2021/06/07 07:54:31;;;;;;;9.25;8.35;;;;;;;21.48;66.78;99106.59;5014553;28;20094;-77
2021/06/07 07:56:57;;;;;;;9.52;8.57;;;;;;;21.49;68.09;99107.41;5014641;28;20515;-78
2021/06/07 07:59:22;;;;;;;8.48;7.78;;;;;;;21.43;67.40;99113.09;5031945;28;20056;-80
2021/06/07 08:01:48;;;;;;;10.30;8.85;;;;;;;21.42;68.01;99122.41;5032544;28;20064;-77
2021/06/07 08:04:13;;;;;;;10.10;9.10;;;;;;;21.43;68.54;99125.91;5014249;28;20420;-82
2021/06/07 08:06:40;;;;;;;10.70;9.02;;;;;;;21.44;68.97;99128.25;5001055;28;20120;-80
2021/06/07 08:09:06;;;;;;;11.63;9.30;;;;;;;21.46;68.99;99125.22;4994893;28;20499;-81
2021/06/07 08:11:31;;;;;;;16.88;9.38;;;;;;;21.46;69.28;99121.69;4994562;28;20113;-85
2021/06/07 08:13:57;;;;;;;10.32;9.43;;;;;;;21.43;70.12;99120.44;5007922;28;20033;-80
2021/06/07 08:16:22;;;;;;;11.05;9.80;;;;;;;21.39;70.27;99125.00;5013723;28;20116;-81
2021/06/07 08:18:48;;;;;;;12.23;10.30;;;;;;;21.38;70.47;99118.00;5014108;28;20036;-80
2021/06/07 08:21:13;;;;;;;10.95;9.95;;;;;;;21.35;70.87;99118.66;5009832;28;20493;-82
2021/06/07 08:23:39;;;;;;;11.45;10.25;;;;;;;21.31;70.79;99115.06;5012481;28;20087;-82
2021/06/07 08:26:05;;;;;;;10.70;9.70;;;;;;;21.24;71.29;99111.00;5014228;28;20052;-82
2021/06/07 08:28:30;;;;;;;11.25;10.18;;;;;;;21.17;72.15;99110.81;5013963;28;20022;-81
2021/06/07 08:30:55;;;;;;;11.80;10.63;;;;;;;21.17;72.31;99116.25;5013387;28;20389;-82
2021/06/07 08:33:21;;;;;;;11.77;10.57;;;;;;;21.17;72.23;99107.31;5013569;28;20442;-84
2021/06/07 08:35:47;;;;;;;12.35;11.00;;;;;;;21.21;72.14;99114.41;5011819;28;20036;-84
2021/06/07 08:38:13;;;;;;;11.48;10.38;;;;;;;21.24;71.94;99119.19;5024011;28;20033;-82
2021/06/07 08:40:38;;;;;;;10.23;9.13;;;;;;;21.28;71.67;99114.63;5013525;28;20446;-81
2021/06/07 08:43:04;;;;;;;8.75;8.00;;;;;;;21.41;71.15;99118.09;5003228;28;20062;-83
2021/06/07 08:45:30;;;;;;;10.50;9.38;;;;;;;21.47;71.04;99118.63;5013363;28;20040;-83
2021/06/07 08:47:56;;;;;;;13.00;9.43;;;;;;;21.46;70.47;99108.88;5005689;28;20040;-82
2021/06/07 08:50:25;;;;;;;10.93;9.85;;;;;;;21.58;70.25;99121.66;5026591;28;20024;-82
2021/06/07 08:52:50;;;;;;;12.07;9.73;;;;;;;21.62;70.03;99119.03;5017447;28;20115;-83
2021/06/07 08:55:19;;;;;;;10.35;9.35;;;;;;;21.66;69.65;99119.94;5013876;28;20450;-86
2021/06/07 08:57:51;;;;;;;9.63;8.57;;;;;;;21.67;68.93;99119.56;5013602;28;20040;-84
2021/06/07 09:00:21;;;;;;;13.43;12.02;;;;;;;21.71;69.22;99119.66;5009713;28;20029;-83
2021/06/07 09:02:48;;;;;;;14.35;10.90;;;;;;;21.76;69.24;99111.25;5009109;28;20021;-83
2021/06/07 09:05:15;;;;;;;10.57;9.48;;;;;;;21.82;68.64;99104.41;5015776;28;20033;-80
2021/06/07 09:08:02;;;;;;;11.57;10.47;;;;;;;21.86;69.16;99115.38;5021593;28;20048;-79
2021/06/07 09:10:30;;;;;;;15.60;9.82;;;;;;;21.85;69.38;99114.59;5030413;28;20041;-79
2021/06/07 09:12:58;;;;;;;;;;;;;;;21.86;68.99;99109.94;4999842;28;20053;-79
2021/06/07 09:15:26;;;;;;;;;;;;;;;21.87;69.17;99108.78;5007775;28;19920;-79
2021/06/07 09:17:52;;;;;;;10.32;9.10;;;;;;;21.86;69.15;99115.38;5012954;28;19917;-81
2021/06/07 09:20:20;;;;;;;12.10;10.25;;;;;;;21.87;69.87;99100.63;5012860;28;20047;-81
2021/06/07 09:22:52;;;;;;;17.70;14.65;;;;;;;21.86;69.59;99102.56;5012630;28;20124;-81
2021/06/07 09:25:23;;;;;;;23.65;17.95;;;;;;;21.90;69.99;99099.94;5012850;28;20045;-80
2021/06/07 09:27:59;;;;;;;189.98;90.50;;;;;;;21.93;70.36;99099.22;5013249;28;20408;-81
2021/06/07 09:30:27;;;;;;;354.75;157.55;;;;;;;21.97;69.43;99105.56;5007730;28;20428;-81
2021/06/07 09:33:23;;;;;;;25.13;20.90;;;;;;;21.99;69.34;99100.53;5011280;28;20038;-82
2021/06/07 09:36:08;;;;;;;16.65;13.50;;;;;;;22.06;69.11;99094.50;5012520;28;20034;-84
2021/06/07 09:38:34;;;;;;;16.35;12.80;;;;;;;22.10;68.75;99097.31;5019694;28;20542;-85
2021/06/07 09:41:03;;;;;;;14.27;11.75;;;;;;;22.16;68.27;99091.22;5012706;28;20542;-83
2021/06/07 09:43:52;;;;;;;11.73;10.52;;;;;;;22.20;68.55;99092.13;5012839;28;20512;-81
2021/06/07 09:46:26;;;;;;;12.70;10.60;;;;;;;22.24;68.16;99089.47;5004329;28;20065;-82
2021/06/07 09:49:11;;;;;;;11.90;9.80;;;;;;;22.30;68.16;99096.22;5030479;28;20484;-80
2021/06/07 09:51:41;;;;;;;13.10;10.68;;;;;;;22.36;68.18;99097.53;4993513;28;20408;-78
2021/06/07 09:54:12;;;;;;;15.02;10.60;;;;;;;22.44;67.48;99097.75;5011447;28;20377;-81
2021/06/07 09:56:52;;;;;;;11.68;10.60;;;;;;;22.49;67.56;99097.47;5002937;28;20115;-83
2021/06/07 09:59:24;;;;;;;10.48;9.48;;;;;;;22.56;67.35;99097.63;5009702;28;20404;-84
2021/06/07 10:01:50;;;;;;;10.68;9.57;;;;;;;22.62;67.62;99098.94;5009083;28;20038;-81
2021/06/07 10:04:15;;;;;;;10.18;9.18;;;;;;;22.70;67.85;99102.59;5013013;28;20392;-78
2021/06/07 10:06:42;;;;;;;11.93;10.10;;;;;;;22.74;68.42;99095.28;5027762;28;20034;-79
2021/06/07 10:09:08;;;;;;;11.55;10.45;;;;;;;22.79;67.98;99089.56;5025435;28;20029;-80
2021/06/07 10:11:42;;;;;;;10.95;9.93;;;;;;;22.85;67.84;99095.50;5033130;28;20033;-82
2021/06/07 10:14:23;;;;;;;11.23;10.02;;;;;;;22.89;67.21;99088.19;5016440;28;20028;-78
2021/06/07 10:16:58;;;;;;;11.35;10.25;;;;;;;22.91;67.33;99074.19;5014141;28;20029;-80
2021/06/07 10:19:46;;;;;;;13.70;12.43;;;;;;;22.93;66.36;99071.91;5018083;28;20029;-78
2021/06/07 10:22:12;;;;;;;;;;;;;;;22.94;66.08;99076.22;4997309;28;20036;-80
2021/06/07 10:24:37;;;;;;;10.57;9.48;;;;;;;22.89;65.76;99068.31;5015139;28;20006;-80
2021/06/07 10:27:03;;;;;;;11.05;10.05;;;;;;;22.86;66.83;99065.16;5033763;28;20492;-86
2021/06/07 10:29:43;;;;;;;10.90;9.85;;;;;;;22.81;67.07;99065.47;5015515;28;20037;-87
2021/06/07 10:32:17;;;;;;;15.38;11.07;;;;;;;22.83;67.06;99062.38;5017286;28;20493;-88
2021/06/07 10:34:49;;;;;;;17.05;10.93;;;;;;;22.82;66.22;99058.84;5015838;28;20037;-84
2021/06/07 10:37:15;;;;;;;15.10;12.68;;;;;;;22.84;65.40;99050.31;5016903;28;20037;-87
2021/06/07 10:39:41;;;;;;;14.65;11.55;;;;;;;22.87;65.93;99052.31;5034324;28;20786;-89
2021/06/07 10:42:09;;;;;;;10.90;9.85;;;;;;;22.90;64.22;99053.53;5016489;28;20056;-87
2021/06/07 10:44:34;;;;;;;14.65;11.40;;;;;;;22.90;64.41;99043.44;5015897;28;20033;-83
2021/06/07 10:47:04;;;;;;;10.95;9.95;;;;;;;22.91;63.59;99046.94;5015756;28;20039;-87
2021/06/07 10:49:43;;;;;;;15.10;11.40;;;;;;;22.92;64.06;99049.28;5016032;28;20037;-81
2021/06/07 10:52:22;;;;;;;11.15;9.98;;;;;;;22.90;63.05;99037.97;5016117;28;20025;-89
2021/06/07 10:55:06;;;;;;;13.18;10.60;;;;;;;22.88;63.79;99040.25;5005214;28;20045;-88
2021/06/07 10:57:35;;;;;;;13.35;11.95;;;;;;;22.85;63.70;99035.50;5010279;28;20064;-88
2021/06/07 11:00:04;;;;;;;14.07;11.55;;;;;;;22.89;64.67;99032.84;5015233;28;20044;-89
2021/06/07 11:02:40;;;;;;;15.82;11.88;;;;;;;22.90;64.19;99034.44;5015955;28;20025;-88
2021/06/07 11:05:21;;;;;;;14.63;12.00;;;;;;;22.92;64.59;99032.16;5015958;28;20048;-88
2021/06/07 11:08:16;;;;;;;16.63;11.73;;;;;;;22.98;64.49;99025.25;5014230;28;20530;-88
2021/06/07 11:10:47;;;;;;;13.75;10.57;;;;;;;23.02;63.53;99026.09;5007916;28;20029;-88
2021/06/07 11:13:15;;;;;;;15.68;11.82;;;;;;;23.06;63.14;99023.44;5016382;28;20025;-88
2021/06/07 11:15:58;;;;;;;12.60;10.10;;;;;;;23.08;62.32;99021.94;5016565;28;20124;-88
2021/06/07 11:18:31;;;;;;;12.52;10.32;;;;;;;23.11;62.04;99015.78;5016605;28;20030;-90
2021/06/07 11:20:59;;;;;;;10.05;9.05;;;;;;;23.13;61.30;99016.22;5032534;28;20042;-89
2021/06/07 11:23:36;;;;;;;10.23;9.23;;;;;;;23.15;61.16;99011.16;5016712;28;20419;-90
2021/06/07 11:26:04;;;;;;;10.65;9.50;;;;;;;23.20;61.52;99012.06;5016653;28;20111;-89
2021/06/07 11:28:50;;;;;;;10.65;9.65;;;;;;;23.27;61.66;99015.69;5000270;28;20060;-86
2021/06/07 11:31:18;;;;;;;10.20;8.95;;;;;;;23.32;60.95;99009.16;4991529;28;20056;-82